createdAt,value
2019-04-14T00:02:15.294Z,3.20
2019-04-14T00:04:48.766Z,3.20
2019-04-14T00:07:20.898Z,3.20
2019-04-14T00:09:52.082Z,3.20
2019-04-14T00:12:23.039Z,3.10
2019-04-14T00:14:53.727Z,3.10
2019-04-14T00:17:24.382Z,3.10
2019-04-14T00:19:55.130Z,3.20
2019-04-14T00:22:28.096Z,3.20
2019-04-14T00:24:58.093Z,3.20
2019-04-14T00:27:30.098Z,3.10
2019-04-14T00:30:01.159Z,3.10
2019-04-14T00:32:33.505Z,3.10
2019-04-14T00:35:32.719Z,3.10
2019-04-14T00:38:28.428Z,3.10
2019-04-14T00:41:37.314Z,3.10
2019-04-14T00:44:14.656Z,3.00
2019-04-14T00:47:00.539Z,2.90
2019-04-14T00:49:31.296Z,3.00
2019-04-14T00:52:01.886Z,2.90
2019-04-14T00:54:32.613Z,3.00
2019-04-14T00:57:03.281Z,3.00
2019-04-14T00:59:35.399Z,2.90
2019-04-14T01:02:06.097Z,2.90
2019-04-14T01:04:36.725Z,2.90
2019-04-14T01:07:08.627Z,3.00
2019-04-14T01:09:39.432Z,2.90
2019-04-14T01:12:10.299Z,2.80
2019-04-14T01:14:40.985Z,2.80
2019-04-14T01:17:11.549Z,2.70
2019-04-14T01:19:42.166Z,2.70
2019-04-14T01:22:12.715Z,2.70
2019-04-14T01:24:44.606Z,2.80
2019-04-14T01:27:16.682Z,2.80
2019-04-14T01:29:47.418Z,2.70
2019-04-14T01:32:18.033Z,2.70
2019-04-14T01:34:51.148Z,2.70
2019-04-14T01:37:20.927Z,2.80
2019-04-14T01:39:52.525Z,2.70
2019-04-14T01:42:24.484Z,2.70
2019-04-14T01:44:55.213Z,2.70
2019-04-14T01:47:26.947Z,2.80
2019-04-14T01:49:57.807Z,2.80
2019-04-14T01:52:50.364Z,2.80
2019-04-14T01:55:39.482Z,2.80
2019-04-14T01:58:20.675Z,2.70
2019-04-14T02:01:19.721Z,2.70
2019-04-14T02:03:50.296Z,2.70
2019-04-14T02:06:22.238Z,2.80
2019-04-14T02:08:52.988Z,2.80
2019-04-14T02:11:24.763Z,2.80
2019-04-14T02:13:55.641Z,2.80
2019-04-14T02:16:34.916Z,2.80
2019-04-14T02:18:58.733Z,2.80
2019-04-14T02:21:30.287Z,2.70
2019-04-14T02:24:02.469Z,2.70
2019-04-14T02:26:33.177Z,2.80
2019-04-14T02:29:03.821Z,2.80
2019-04-14T02:32:01.857Z,2.80
2019-04-14T02:34:42.109Z,2.80
2019-04-14T02:37:10.848Z,2.80
2019-04-14T02:39:38.548Z,2.80
2019-04-14T02:42:17.388Z,2.70
2019-04-14T02:44:45.833Z,2.70
2019-04-14T02:52:20.579Z,2.80
2019-04-14T02:59:58.506Z,2.70
2019-04-14T03:02:30.710Z,2.70
2019-04-14T03:05:01.882Z,2.80
2019-04-14T03:07:38.197Z,2.70
2019-04-14T03:10:05.233Z,2.70
2019-04-14T03:15:09.768Z,2.70
2019-04-14T03:21:05.494Z,2.70
2019-04-14T03:24:07.156Z,2.70
2019-04-14T03:27:06.270Z,2.70
2019-04-14T03:29:36.774Z,2.70
2019-04-14T03:32:32.562Z,2.70
2019-04-14T03:34:55.880Z,2.60
2019-04-14T03:37:37.731Z,2.60
2019-04-14T03:39:45.925Z,2.60
2019-04-14T03:44:49.276Z,2.60
2019-04-14T03:50:02.503Z,2.60
2019-04-14T03:52:43.773Z,2.50
2019-04-14T03:54:52.848Z,2.50
2019-04-14T03:57:08.913Z,2.40
2019-04-14T03:59:39.521Z,2.30
2019-04-14T04:02:10.078Z,2.30
2019-04-14T04:04:40.687Z,2.20
2019-04-14T04:07:12.484Z,2.20
2019-04-14T04:09:49.644Z,2.20
2019-04-14T04:12:20.420Z,2.10
2019-04-14T04:14:51.141Z,2.10
2019-04-14T04:17:34.812Z,2.10
2019-04-14T04:20:28.590Z,2.00
2019-04-14T04:23:16.930Z,2.10
2019-04-14T04:26:04.064Z,2.00
2019-04-14T04:28:54.006Z,1.90
2019-04-14T04:31:37.743Z,1.90
2019-04-14T04:34:14.000Z,2.00
2019-04-14T04:37:06.821Z,2.00
2019-04-14T04:39:41.184Z,1.90
2019-04-14T04:42:16.114Z,2.00
2019-04-14T04:44:46.743Z,2.00
2019-04-14T04:47:17.321Z,2.00
2019-04-14T04:49:49.009Z,2.00
2019-04-14T04:52:21.176Z,2.00
2019-04-14T04:54:52.330Z,2.00
2019-04-14T04:57:24.189Z,2.10
2019-04-14T04:59:56.135Z,2.10
2019-04-14T05:02:27.023Z,2.10
2019-04-14T05:04:57.685Z,2.10
2019-04-14T05:07:29.469Z,2.10
2019-04-14T05:10:24.215Z,2.10
2019-04-14T05:13:14.185Z,2.10
2019-04-14T05:15:51.166Z,2.10
2019-04-14T05:18:26.795Z,2.00
2019-04-14T05:20:57.503Z,2.00
2019-04-14T05:23:28.327Z,2.00
2019-04-14T05:25:58.864Z,2.00
2019-04-14T05:28:29.404Z,2.00
2019-04-14T05:31:01.221Z,2.10
2019-04-14T05:33:31.998Z,2.10
2019-04-14T05:36:02.594Z,2.00
2019-04-14T05:38:34.367Z,2.10
2019-04-14T05:41:06.962Z,2.10
2019-04-14T05:43:46.678Z,2.10
2019-04-14T05:46:09.956Z,2.10
2019-04-14T05:48:40.563Z,2.10
2019-04-14T05:51:11.436Z,2.10
2019-04-14T05:53:42.012Z,2.10
2019-04-14T05:56:12.553Z,2.10
2019-04-14T05:58:43.165Z,2.20
2019-04-14T06:01:13.929Z,2.20
2019-04-14T06:03:45.436Z,2.10
2019-04-14T06:06:16.044Z,2.10
2019-04-14T06:08:46.731Z,2.20
2019-04-14T06:11:17.297Z,2.20
2019-04-14T06:13:47.912Z,2.30
2019-04-14T06:16:18.495Z,2.20
2019-04-14T06:18:49.162Z,2.30
2019-04-14T06:21:19.708Z,2.30
2019-04-14T06:23:50.601Z,2.40
2019-04-14T06:26:21.158Z,2.40
2019-04-14T06:28:51.722Z,2.60
2019-04-14T06:31:48.972Z,2.60
2019-04-14T06:34:34.184Z,2.70
2019-04-14T06:37:23.681Z,2.70
2019-04-14T06:39:54.255Z,2.90
2019-04-14T06:42:24.939Z,2.90
2019-04-14T06:44:55.824Z,3.00
2019-04-14T06:47:26.854Z,3.10
2019-04-14T06:49:57.425Z,3.20
2019-04-14T06:52:28.083Z,3.30
2019-04-14T06:54:58.697Z,3.30
2019-04-14T06:57:29.267Z,3.30
2019-04-14T07:00:00.216Z,3.30
2019-04-14T07:02:31.462Z,3.50
2019-04-14T07:05:02.030Z,3.50
2019-04-14T07:07:32.623Z,3.60
2019-04-14T07:10:03.208Z,3.60
2019-04-14T07:12:33.764Z,3.60
2019-04-14T07:15:04.910Z,3.60
2019-04-14T07:17:35.787Z,3.60
2019-04-14T07:20:07.474Z,3.50
2019-04-14T07:22:38.023Z,3.60
2019-04-14T07:25:08.724Z,3.80
2019-04-14T07:27:39.277Z,3.90
2019-04-14T07:30:26.882Z,4.10
2019-04-14T07:33:09.326Z,4.30
2019-04-14T07:35:57.531Z,4.50
2019-04-14T07:38:52.926Z,4.60
2019-04-14T07:41:31.461Z,4.80
2019-04-14T07:44:21.385Z,5.00
2019-04-14T07:46:58.797Z,4.90
2019-04-14T07:49:47.011Z,4.90
2019-04-14T07:52:42.575Z,5.10
2019-04-14T07:55:20.461Z,5.20
2019-04-14T07:58:04.094Z,5.40
2019-04-14T08:00:42.515Z,5.40
2019-04-14T08:03:32.009Z,5.50
2019-04-14T08:06:03.080Z,5.80
2019-04-14T08:08:33.629Z,5.90
2019-04-14T08:11:04.236Z,6.10
2019-04-14T08:13:34.806Z,6.20
2019-04-14T08:16:05.507Z,6.30
2019-04-14T08:18:36.084Z,6.30
2019-04-14T08:21:06.737Z,6.30
2019-04-14T08:23:37.294Z,6.40
2019-04-14T08:26:07.921Z,6.70
2019-04-14T08:28:38.504Z,6.50
2019-04-14T08:31:09.096Z,6.20
2019-04-14T08:33:39.738Z,6.10
2019-04-14T08:36:10.579Z,6.40
2019-04-14T08:38:41.150Z,6.60
2019-04-14T08:41:11.738Z,6.70
2019-04-14T08:43:47.905Z,6.90
2019-04-14T08:46:42.255Z,7.00
2019-04-14T08:49:34.697Z,7.00
2019-04-14T08:52:24.128Z,6.70
2019-04-14T08:55:16.654Z,6.70
2019-04-14T08:58:21.200Z,6.90
2019-04-14T09:01:13.676Z,7.00
2019-04-14T09:04:03.694Z,7.20
2019-04-14T09:06:42.130Z,7.30
2019-04-14T09:09:34.703Z,7.40
2019-04-14T09:12:15.265Z,7.50
2019-04-14T09:14:41.005Z,7.60
2019-04-14T09:17:11.625Z,7.90
2019-04-14T09:19:42.174Z,7.90
2019-04-14T09:22:13.087Z,7.70
2019-04-14T09:24:43.639Z,7.40
2019-04-14T09:27:14.240Z,7.30
2019-04-14T09:29:44.861Z,7.50
2019-04-14T09:32:15.512Z,7.60
2019-04-14T09:34:46.154Z,7.70
2019-04-14T09:37:16.711Z,7.80
2019-04-14T09:39:47.284Z,7.80
2019-04-14T09:42:17.850Z,7.90
2019-04-14T09:44:48.820Z,8.00
2019-04-14T09:47:19.382Z,8.30
2019-04-14T09:49:50.026Z,8.20
2019-04-14T09:52:20.596Z,8.00
2019-04-14T09:54:51.296Z,8.00
2019-04-14T09:57:22.182Z,8.30
2019-04-14T09:59:52.755Z,8.30
2019-04-14T10:02:23.376Z,8.40
2019-04-14T10:04:54.004Z,8.40
2019-04-14T10:07:24.568Z,8.20
2019-04-14T10:09:55.336Z,8.00
2019-04-14T10:12:25.897Z,7.80
2019-04-14T10:14:56.622Z,7.70
2019-04-14T10:17:27.191Z,8.10
2019-04-14T10:19:57.828Z,8.10
2019-04-14T10:22:34.107Z,8.10
2019-04-14T10:25:00.754Z,8.10
2019-04-14T10:27:31.639Z,8.20
2019-04-14T10:30:02.173Z,8.20
2019-04-14T10:32:32.699Z,8.10
2019-04-14T10:35:03.689Z,8.30
2019-04-14T10:37:34.293Z,8.30
2019-04-14T10:40:06.188Z,8.70
2019-04-14T10:42:36.916Z,8.90
2019-04-14T10:45:08.432Z,8.70
2019-04-14T10:47:39.085Z,8.80
2019-04-14T10:50:09.782Z,9.00
2019-04-14T10:52:40.331Z,9.20
2019-04-14T10:55:11.135Z,9.40
2019-04-14T10:57:41.683Z,9.10
2019-04-14T11:00:14.816Z,9.00
2019-04-14T11:02:45.381Z,9.00
2019-04-14T11:05:16.031Z,9.00
2019-04-14T11:07:46.947Z,9.60
2019-04-14T11:10:17.955Z,10.80
2019-04-14T11:12:48.520Z,10.80
2019-04-14T11:15:19.056Z,10.10
2019-04-14T11:17:49.610Z,10.30
2019-04-14T11:20:20.230Z,10.60
2019-04-14T11:23:02.463Z,10.80
2019-04-14T11:25:23.067Z,10.80
2019-04-14T11:27:53.952Z,10.20
2019-04-14T11:30:24.918Z,10.30
2019-04-14T11:33:20.288Z,10.50
2019-04-14T11:35:59.243Z,10.60
2019-04-14T11:38:36.215Z,10.10
2019-04-14T11:41:16.734Z,10.10
2019-04-14T11:43:47.340Z,9.90
2019-04-14T11:46:19.179Z,9.90
2019-04-14T11:48:49.767Z,9.50
2019-04-14T11:51:20.339Z,9.40
2019-04-14T11:53:51.214Z,9.40
2019-04-14T11:56:21.854Z,9.50
2019-04-14T11:58:52.455Z,9.30
2019-04-14T12:01:45.103Z,9.20
2019-04-14T12:04:28.648Z,9.10
2019-04-14T12:07:07.596Z,8.70
2019-04-14T12:09:42.009Z,8.80
2019-04-14T12:12:12.560Z,8.60
2019-04-14T12:14:43.207Z,8.80
2019-04-14T12:17:14.109Z,8.70
2019-04-14T12:19:44.685Z,8.70
2019-04-14T12:22:15.237Z,8.80
2019-04-14T12:24:45.857Z,8.90
2019-04-14T12:27:16.403Z,8.90
2019-04-14T12:29:47.952Z,8.60
2019-04-14T12:32:19.152Z,8.70
2019-04-14T12:34:49.717Z,9.10
2019-04-14T12:37:20.328Z,9.40
2019-04-14T12:39:50.971Z,9.30
2019-04-14T12:42:40.495Z,9.10
2019-04-14T12:45:42.600Z,8.80
2019-04-14T12:48:38.110Z,8.80
2019-04-14T12:51:20.398Z,8.80
2019-04-14T12:53:50.245Z,9.10
2019-04-14T12:56:24.579Z,8.70
2019-04-14T12:59:14.088Z,8.70
2019-04-14T13:02:03.627Z,8.80
2019-04-14T13:04:34.586Z,8.60
2019-04-14T13:07:05.182Z,9.10
2019-04-14T13:09:35.740Z,9.80
2019-04-14T13:12:06.456Z,9.90
2019-04-14T13:14:36.984Z,10.20
2019-04-14T13:17:07.618Z,10.70
2019-04-14T13:19:38.218Z,10.10
2019-04-14T13:22:08.867Z,9.70
2019-04-14T13:24:39.651Z,10.20
2019-04-14T13:27:10.224Z,10.70
2019-04-14T13:29:41.408Z,10.40
2019-04-14T13:32:12.037Z,10.30
2019-04-14T13:34:42.567Z,9.90
2019-04-14T13:37:13.458Z,9.70
2019-04-14T13:39:44.345Z,9.50
2019-04-14T13:42:15.699Z,9.20
2019-04-14T13:44:46.262Z,9.30
2019-04-14T13:47:16.810Z,9.20
2019-04-14T13:49:47.452Z,8.90
2019-04-14T13:52:18.119Z,8.80
2019-04-14T13:54:48.669Z,8.60
2019-04-14T13:57:19.341Z,8.30
2019-04-14T13:59:49.943Z,8.10
2019-04-14T14:02:20.584Z,8.10
2019-04-14T14:04:51.212Z,8.10
2019-04-14T14:07:21.766Z,8.00
2019-04-14T14:09:52.353Z,8.00
2019-04-14T14:12:51.053Z,7.80
2019-04-14T14:15:58.771Z,7.70
2019-04-14T14:18:40.196Z,7.60
2019-04-14T14:21:27.133Z,7.70
2019-04-14T14:24:14.170Z,7.60
2019-04-14T14:26:45.894Z,7.60
2019-04-14T14:29:16.469Z,7.60
2019-04-14T14:31:47.147Z,7.70
2019-04-14T14:34:17.745Z,7.70
2019-04-14T14:36:48.362Z,7.90
2019-04-14T14:39:21.265Z,7.90
2019-04-14T14:41:51.913Z,7.60
2019-04-14T14:44:24.168Z,7.40
2019-04-14T14:47:11.934Z,7.60
2019-04-14T14:50:00.191Z,7.70
2019-04-14T14:52:31.556Z,7.80
2019-04-14T14:55:02.240Z,7.80
2019-04-14T14:57:33.198Z,7.60
2019-04-14T15:00:04.001Z,7.50
2019-04-14T15:02:34.551Z,7.40
2019-04-14T15:05:05.796Z,7.30
2019-04-14T15:07:36.769Z,7.70
2019-04-14T15:10:07.711Z,7.50
2019-04-14T15:12:38.258Z,7.40
2019-04-14T15:15:09.698Z,7.30
2019-04-14T15:17:40.525Z,7.50
2019-04-14T15:20:11.457Z,7.40
2019-04-14T15:22:42.798Z,7.30
2019-04-14T15:25:14.089Z,7.40
2019-04-14T15:27:44.970Z,7.30
2019-04-14T15:30:19.174Z,7.40
2019-04-14T15:32:49.774Z,7.50
2019-04-14T15:35:20.316Z,7.20
2019-04-14T15:37:50.954Z,7.10
2019-04-14T15:40:21.589Z,7.20
2019-04-14T15:42:52.126Z,7.20
2019-04-14T15:45:22.711Z,6.80
2019-04-14T15:47:53.248Z,6.80
2019-04-14T15:50:24.399Z,7.10
2019-04-14T15:52:54.930Z,7.20
2019-04-14T15:55:25.735Z,7.10
2019-04-14T15:58:28.103Z,7.30
2019-04-14T16:01:16.795Z,7.50
2019-04-14T16:04:01.685Z,7.50
2019-04-14T16:06:54.286Z,7.20
2019-04-14T16:09:36.054Z,6.70
2019-04-14T16:12:17.935Z,6.80
2019-04-14T16:15:13.683Z,6.60
2019-04-14T16:18:09.129Z,6.60
2019-04-14T16:20:41.972Z,6.40
2019-04-14T16:23:12.630Z,6.60
2019-04-14T16:26:01.742Z,6.50
2019-04-14T16:28:40.889Z,6.50
2019-04-14T16:31:30.702Z,6.50
2019-04-14T16:34:26.874Z,6.40
2019-04-14T16:36:58.046Z,6.50
2019-04-14T16:39:29.076Z,6.70
2019-04-14T16:41:59.945Z,6.60
2019-04-14T16:44:30.506Z,6.70
2019-04-14T16:47:01.482Z,6.30
2019-04-14T16:49:32.067Z,6.30
2019-04-14T16:52:22.028Z,6.20
2019-04-14T16:55:01.110Z,6.40
2019-04-14T16:57:49.203Z,6.10
2019-04-14T17:00:29.282Z,6.00
2019-04-14T17:02:59.844Z,5.90
2019-04-14T17:05:30.432Z,5.80
2019-04-14T17:08:00.989Z,5.70
2019-04-14T17:10:31.621Z,5.70
2019-04-14T17:13:02.189Z,5.60
2019-04-14T17:15:57.601Z,5.60
2019-04-14T17:18:54.091Z,5.50
2019-04-14T17:21:43.924Z,5.50
2019-04-14T17:24:31.556Z,5.50
2019-04-14T17:27:19.094Z,5.50
2019-04-14T17:30:05.562Z,5.40
2019-04-14T17:33:01.606Z,5.50
2019-04-14T17:35:51.141Z,5.40
2019-04-14T17:38:46.676Z,5.40
2019-04-14T17:41:39.590Z,5.50
2019-04-14T17:44:29.267Z,5.30
2019-04-14T17:47:17.689Z,5.40
2019-04-14T17:49:57.973Z,5.40
2019-04-14T17:52:40.713Z,5.40
2019-04-14T17:55:49.123Z,5.40
2019-04-14T17:58:22.624Z,5.30
2019-04-14T18:01:18.489Z,5.30
2019-04-14T18:03:58.129Z,5.20
2019-04-14T18:07:00.170Z,5.30
2019-04-14T18:09:59.107Z,5.30
2019-04-14T18:12:51.403Z,5.20
2019-04-14T18:15:56.156Z,5.20
2019-04-14T18:18:48.850Z,5.10
2019-04-14T18:21:19.631Z,5.10
2019-04-14T18:23:50.592Z,5.00
2019-04-14T18:26:21.337Z,5.00
2019-04-14T18:29:20.037Z,5.00
2019-04-14T18:32:09.340Z,5.00
2019-04-14T18:34:48.193Z,5.00
2019-04-14T18:37:41.125Z,5.00
2019-04-14T18:40:33.335Z,4.90
2019-04-14T18:43:22.794Z,4.90
2019-04-14T18:46:04.522Z,4.90
2019-04-14T18:49:03.271Z,4.90
2019-04-14T18:52:01.812Z,4.90
2019-04-14T18:54:53.837Z,4.90
2019-04-14T18:57:19.882Z,4.90
2019-04-14T18:59:57.871Z,4.90
2019-04-14T19:02:28.535Z,4.80
2019-04-14T19:04:59.189Z,4.80
2019-04-14T19:07:30.198Z,4.80
2019-04-14T19:10:00.976Z,4.80
2019-04-14T19:12:53.275Z,4.80
2019-04-14T19:15:34.730Z,4.80
2019-04-14T19:18:33.669Z,4.80
2019-04-14T19:21:10.798Z,4.80
2019-04-14T19:23:41.584Z,4.80
2019-04-14T19:26:12.627Z,4.70
2019-04-14T19:28:43.190Z,4.70
2019-04-14T19:31:13.816Z,4.70
2019-04-14T19:33:44.594Z,4.70
2019-04-14T19:36:15.200Z,4.70
2019-04-14T19:38:45.794Z,4.70
2019-04-14T19:41:16.568Z,4.70
2019-04-14T19:43:47.507Z,4.60
2019-04-14T19:46:18.094Z,4.60
2019-04-14T19:48:49.146Z,4.60
2019-04-14T19:51:19.962Z,4.60
2019-04-14T19:53:50.856Z,4.60
2019-04-14T19:56:21.487Z,4.60
2019-04-14T19:58:52.173Z,4.60
2019-04-14T20:01:23.070Z,4.60
2019-04-14T20:03:53.710Z,4.60
2019-04-14T20:06:24.375Z,4.50
2019-04-14T20:08:54.995Z,4.50
2019-04-14T20:11:26.177Z,4.50
2019-04-14T20:13:56.753Z,4.50
2019-04-14T20:16:52.546Z,4.40
2019-04-14T20:20:00.538Z,4.40
2019-04-14T20:23:05.413Z,4.30
2019-04-14T20:25:58.714Z,4.30
2019-04-14T20:28:48.454Z,4.20
2019-04-14T20:31:38.207Z,4.10
2019-04-14T20:34:08.771Z,4.10
2019-04-14T20:36:39.727Z,4.10
2019-04-14T20:39:18.065Z,4.10
2019-04-14T20:41:48.942Z,4.20
2019-04-14T20:44:19.678Z,4.20
2019-04-14T20:46:50.319Z,4.20
2019-04-14T20:49:20.875Z,4.10
2019-04-14T20:51:51.785Z,4.10
2019-04-14T20:54:22.654Z,4.10
2019-04-14T20:56:53.282Z,4.10
2019-04-14T20:59:23.843Z,4.10
2019-04-14T21:02:01.077Z,4.00
2019-04-14T21:04:56.459Z,4.10
2019-04-14T21:07:45.602Z,4.10
2019-04-14T21:10:21.250Z,4.00
2019-04-14T21:13:16.888Z,4.00
2019-04-14T21:15:51.798Z,3.90
2019-04-14T21:18:53.790Z,3.90
2019-04-14T21:21:39.647Z,3.80
2019-04-14T21:24:35.582Z,3.80
2019-04-14T21:27:40.718Z,3.80
2019-04-14T21:30:20.337Z,3.90
2019-04-14T21:33:08.574Z,3.90
2019-04-14T21:36:04.243Z,3.90
2019-04-14T21:38:42.331Z,3.90
2019-04-14T21:41:24.869Z,4.00
2019-04-14T21:43:55.430Z,4.00
2019-04-14T21:46:26.042Z,4.00
2019-04-14T21:48:56.611Z,4.10
2019-04-14T21:51:46.546Z,4.10
2019-04-14T21:54:18.017Z,4.10
2019-04-14T21:56:57.190Z,4.10
2019-04-14T21:59:30.546Z,4.10
2019-04-14T22:02:19.652Z,4.00
2019-04-14T22:04:58.370Z,4.00
2019-04-14T22:07:37.404Z,4.00
2019-04-14T22:10:32.563Z,4.00
2019-04-14T22:13:03.122Z,4.00
2019-04-14T22:15:33.700Z,4.00
2019-04-14T22:18:04.280Z,4.00
2019-04-14T22:20:34.861Z,4.10
2019-04-14T22:23:08.434Z,4.00
2019-04-14T22:25:39.096Z,4.00
2019-04-14T22:28:10.018Z,4.00
2019-04-14T22:30:40.960Z,4.00
2019-04-14T22:33:11.569Z,4.10
2019-04-14T22:35:42.429Z,4.00
2019-04-14T22:38:13.006Z,4.00
2019-04-14T22:40:43.567Z,4.00
2019-04-14T22:43:14.233Z,4.00
2019-04-14T22:45:44.803Z,4.00
2019-04-14T22:48:15.416Z,4.00
2019-04-14T22:50:46.307Z,3.90
2019-04-14T22:53:16.891Z,3.90
2019-04-14T22:55:47.788Z,3.90
2019-04-14T22:58:18.432Z,4.00
2019-04-14T23:00:52.935Z,4.00
2019-04-14T23:03:54.484Z,4.00
2019-04-14T23:06:59.427Z,4.00
2019-04-14T23:09:35.568Z,3.90
2019-04-14T23:12:17.558Z,3.90
2019-04-14T23:15:10.389Z,3.90
2019-04-14T23:17:45.594Z,3.90
2019-04-14T23:20:19.670Z,4.00
2019-04-14T23:23:05.341Z,3.90
2019-04-14T23:25:36.739Z,3.90
2019-04-14T23:28:07.362Z,3.90
2019-04-14T23:30:38.030Z,3.90
2019-04-14T23:33:08.875Z,3.90
2019-04-14T23:35:39.763Z,3.90
2019-04-14T23:38:10.397Z,3.80
2019-04-14T23:40:41.037Z,3.90
2019-04-14T23:43:11.919Z,3.90
2019-04-14T23:45:42.510Z,3.80
2019-04-14T23:48:13.186Z,3.80
2019-04-14T23:50:44.064Z,3.80
2019-04-14T23:53:14.632Z,3.70
2019-04-14T23:55:45.345Z,3.70
2019-04-14T23:58:15.881Z,3.70
